Time;durP1;ratioP1;P1;durP2;ratioP2;P2;SDS_P1;SDS_P2;PMS_P1;PMS_P2;Temp;Humidity;BMP_temperature;BMP_pressure;BME280_temperature;BME280_humidity;BME280_pressure;Samples;Min_cycle;Max_cycle;Signal;HPM_P1;HPM_P2
2021/12/19 00:09:08;;;;;;;12.15;4.88;;;7.40;99.90;;;;;;5097683;28;20539;-66
2021/12/19 00:11:34;;;;;;;5.75;3.85;;;7.50;99.90;;;;;;5090710;28;20051;-66
2021/12/19 00:14:00;;;;;;;7.55;3.03;;;7.50;99.90;;;;;;5092162;28;20419;-66
2021/12/19 00:16:26;;;;;;;5.25;2.65;;;7.40;99.90;;;;;;5093428;28;20048;-66
2021/12/19 00:18:52;;;;;;;3.20;1.65;;;7.40;99.90;;;;;;5097784;28;20058;-66
2021/12/19 00:21:20;;;;;;;6.82;2.28;;;7.40;99.90;;;;;;5112205;28;20735;-66
2021/12/19 00:23:48;;;;;;;6.93;2.10;;;7.40;99.90;;;;;;5100839;28;20058;-66
2021/12/19 00:26:15;;;;;;;1.85;1.35;;;7.40;99.90;;;;;;5098874;28;20040;-66
2021/12/19 00:28:42;;;;;;;2.40;1.20;;;7.50;99.90;;;;;;5111742;27;20100;-66
2021/12/19 00:31:08;;;;;;;1.58;0.70;;;7.40;99.90;;;;;;5110449;28;20063;-66
2021/12/19 00:33:34;;;;;;;2.35;0.95;;;7.40;99.90;;;;;;5111007;28;20048;-66
2021/12/19 00:36:01;;;;;;;1.10;1.00;;;7.40;99.90;;;;;;5110484;28;20079;-66
2021/12/19 00:38:26;;;;;;;2.97;0.85;;;7.30;99.90;;;;;;5111958;28;20039;-66
2021/12/19 00:40:53;;;;;;;3.88;0.90;;;7.40;99.90;;;;;;5109862;28;20057;-66
2021/12/19 00:43:24;;;;;;;3.00;0.90;;;7.30;99.90;;;;;;5111890;28;20090;-66
2021/12/19 00:45:52;;;;;;;1.67;0.73;;;7.30;99.90;;;;;;5110194;28;20043;-66
2021/12/19 00:48:18;;;;;;;0.65;0.60;;;7.40;99.90;;;;;;5110136;28;20675;-66
2021/12/19 00:50:44;;;;;;;2.53;1.48;;;7.40;99.90;;;;;;5106972;28;20035;-66
2021/12/19 00:53:10;;;;;;;1.65;0.70;;;7.30;99.90;;;;;;5092539;28;20043;-66
2021/12/19 00:55:37;;;;;;;2.08;0.50;;;7.30;99.90;;;;;;5096652;28;20040;-66
2021/12/19 00:58:04;;;;;;;2.80;0.30;;;7.30;99.90;;;;;;5095545;28;20406;-66
2021/12/19 01:00:33;;;;;;;2.85;0.63;;;7.30;99.90;;;;;;5095325;28;20051;-66
2021/12/19 01:03:00;;;;;;;1.17;0.30;;;7.30;99.90;;;;;;5100318;28;20145;-66
2021/12/19 01:05:28;;;;;;;1.15;0.40;;;7.20;99.90;;;;;;5096752;28;20040;-66
2021/12/19 01:07:55;;;;;;;1.77;0.60;;;7.20;99.90;;;;;;5097437;28;20055;-66
2021/12/19 01:10:21;;;;;;;0.40;0.35;;;7.20;99.90;;;;;;5105833;28;20126;-66
2021/12/19 01:12:47;;;;;;;1.15;0.70;;;7.30;99.90;;;;;;5092602;28;20479;-66
2021/12/19 01:15:15;;;;;;;1.55;0.77;;;7.30;99.90;;;;;;5100885;28;20077;-66
2021/12/19 01:17:41;;;;;;;6.68;1.50;;;7.20;99.90;;;;;;5105834;28;20394;-66
2021/12/19 01:20:12;;;;;;;0.45;0.40;;;7.20;99.90;;;;;;5096936;28;20063;-66
2021/12/19 01:22:38;;;;;;;0.50;0.30;;;7.20;99.90;;;;;;5106818;28;20043;-66
2021/12/19 01:25:04;;;;;;;1.27;0.63;;;7.20;99.90;;;;;;5090797;28;20127;-66
2021/12/19 01:27:29;;;;;;;0.75;0.43;;;7.20;99.90;;;;;;5099547;28;20465;-66
2021/12/19 01:29:55;;;;;;;0.30;0.30;;;7.10;99.90;;;;;;5093736;28;20040;-66
2021/12/19 01:32:20;;;;;;;0.95;0.40;;;7.10;99.90;;;;;;5097962;28;20044;-66
2021/12/19 01:34:46;;;;;;;1.13;0.45;;;7.20;99.90;;;;;;5099618;28;20043;-66
2021/12/19 01:37:12;;;;;;;4.43;0.73;;;7.10;99.90;;;;;;5097919;28;20768;-66
2021/12/19 01:39:38;;;;;;;3.50;0.95;;;7.10;99.90;;;;;;5091750;28;20144;-66
2021/12/19 01:42:08;;;;;;;2.67;0.80;;;7.20;99.90;;;;;;5098142;28;20136;-66
2021/12/19 01:44:33;;;;;;;4.18;1.08;;;7.10;99.90;;;;;;5113347;27;20819;-66
2021/12/19 01:46:59;;;;;;;2.67;0.70;;;7.10;99.90;;;;;;5098406;28;20130;-66
2021/12/19 01:49:25;;;;;;;1.45;0.60;;;7.10;99.90;;;;;;5100642;28;20097;-66
2021/12/19 01:51:51;;;;;;;2.42;1.30;;;7.20;99.90;;;;;;5106425;28;20474;-66
2021/12/19 01:54:17;;;;;;;2.53;1.10;;;7.20;99.90;;;;;;5107672;28;20044;-66
2021/12/19 01:56:42;;;;;;;2.70;1.05;;;7.10;99.90;;;;;;5093490;28;20064;-66
2021/12/19 01:59:10;;;;;;;2.13;1.20;;;7.20;99.90;;;;;;5104760;28;20047;-66
2021/12/19 02:01:51;;;;;;;3.95;1.02;;;7.20;99.90;;;;;;5104493;28;20047;-66
2021/12/19 02:04:19;;;;;;;1.85;1.00;;;7.20;99.90;;;;;;5097967;28;20039;-66
2021/12/19 02:06:45;;;;;;;1.55;0.57;;;7.10;99.90;;;;;;5097599;28;20057;-66
2021/12/19 02:09:11;;;;;;;0.77;0.40;;;7.10;99.90;;;;;;5100746;28;20069;-66
2021/12/19 02:11:39;;;;;;;1.25;0.35;;;7.10;99.90;;;;;;5101021;28;20884;-66
2021/12/19 02:14:06;;;;;;;0.50;0.30;;;6.90;99.90;;;;;;5100453;28;20044;-66
2021/12/19 02:16:32;;;;;;;0.77;0.30;;;6.90;99.90;;;;;;5099461;28;20091;-66
2021/12/19 02:18:59;;;;;;;1.75;0.47;;;7.00;99.90;;;;;;5109983;28;20592;-66
2021/12/19 02:21:25;;;;;;;1.77;0.30;;;7.00;99.90;;;;;;5101081;28;20044;-66
2021/12/19 02:23:50;;;;;;;1.05;0.50;;;6.90;99.90;;;;;;5092494;28;20044;-66
2021/12/19 02:26:17;;;;;;;2.13;0.70;;;6.90;99.90;;;;;;5092191;28;20044;-66
2021/12/19 02:28:43;;;;;;;6.10;0.93;;;6.90;99.90;;;;;;5092610;28;20048;-66
2021/12/19 02:31:09;;;;;;;0.88;0.30;;;6.90;99.90;;;;;;5092707;28;20518;-67
2021/12/19 02:33:40;;;;;;;0.65;0.43;;;6.90;99.90;;;;;;5091677;28;20048;-66
2021/12/19 02:36:22;;;;;;;0.43;0.30;;;6.90;99.90;;;;;;5093965;28;20543;-66
2021/12/19 02:49:31;;;;;;;1.80;0.55;;;6.70;99.90;;;;;;5093437;28;20048;-66
2021/12/19 02:51:57;;;;;;;6.28;1.05;;;6.80;99.90;;;;;;5092684;28;20189;-66
2021/12/19 02:54:24;;;;;;;1.95;0.43;;;6.80;99.90;;;;;;5090796;28;20166;-67
2021/12/19 02:56:50;;;;;;;4.43;0.93;;;6.70;99.90;;;;;;5092005;28;20060;-67
2021/12/19 02:59:17;;;;;;;2.08;0.30;;;6.80;99.90;;;;;;5093466;28;20486;-66
2021/12/19 03:01:44;;;;;;;5.13;0.50;;;6.80;99.90;;;;;;5092372;28;20040;-66
2021/12/19 03:04:10;;;;;;;2.72;0.52;;;6.70;99.90;;;;;;5092113;28;20055;-66
2021/12/19 03:06:41;;;;;;;1.33;0.50;;;6.70;99.90;;;;;;5093119;28;20037;-66
2021/12/19 03:09:09;;;;;;;1.60;0.73;;;6.80;99.90;;;;;;5091059;28;20048;-67
2021/12/19 03:19:47;;;;;;;6.82;0.88;;;6.80;99.90;;;;;;5091417;28;20500;-66
2021/12/19 03:22:12;;;;;;;1.42;0.60;;;6.70;99.90;;;;;;5091248;28;20052;-66
2021/12/19 03:24:38;;;;;;;3.28;1.13;;;6.80;99.90;;;;;;5092705;28;20058;-66
2021/12/19 03:27:04;;;;;;;2.10;1.40;;;6.70;99.90;;;;;;5091947;28;20044;-66
2021/12/19 03:29:29;;;;;;;4.07;1.00;;;6.80;99.90;;;;;;5090695;28;20550;-66
2021/12/19 03:31:55;;;;;;;3.60;1.10;;;6.80;99.90;;;;;;5092856;28;20487;-66
2021/12/19 03:34:21;;;;;;;1.08;0.40;;;6.80;99.90;;;;;;5091377;28;20044;-66
2021/12/19 03:36:48;;;;;;;2.30;0.90;;;6.80;99.90;;;;;;5091906;28;20406;-66
2021/12/19 03:39:25;;;;;;;1.27;0.68;;;6.80;99.90;;;;;;5091234;28;20052;-66
2021/12/19 03:41:54;;;;;;;4.72;0.50;;;6.80;99.90;;;;;;5091100;28;20501;-66
2021/12/19 03:44:19;;;;;;;3.20;1.00;;;6.80;99.90;;;;;;5091920;28;20168;-66
2021/12/19 03:46:45;;;;;;;1.13;0.35;;;6.80;99.90;;;;;;5090831;28;20445;-66
2021/12/19 03:49:11;;;;;;;1.23;0.28;;;6.80;99.90;;;;;;5091455;28;20066;-66
2021/12/19 03:51:37;;;;;;;3.45;0.70;;;6.80;99.90;;;;;;5090125;28;20529;-66
2021/12/19 03:54:02;;;;;;;2.30;0.52;;;6.70;99.90;;;;;;5091018;28;20087;-67
2021/12/19 03:56:28;;;;;;;1.85;0.70;;;6.80;99.90;;;;;;5092438;28;20052;-66
2021/12/19 03:58:54;;;;;;;2.63;1.42;;;6.80;99.90;;;;;;5091574;28;20124;-66
2021/12/19 04:01:20;;;;;;;4.07;1.42;;;6.70;99.90;;;;;;5092259;28;20048;-66
2021/12/19 04:03:46;;;;;;;3.35;1.50;;;6.80;99.90;;;;;;5090864;28;20054;-66
2021/12/19 04:06:12;;;;;;;4.85;1.50;;;6.80;99.90;;;;;;5089528;28;20044;-66
2021/12/19 04:08:38;;;;;;;4.15;1.58;;;6.90;99.90;;;;;;5090518;28;20508;-66
2021/12/19 04:11:03;;;;;;;12.27;2.05;;;6.80;99.90;;;;;;5090280;28;20064;-66
2021/12/19 04:13:29;;;;;;;6.38;1.27;;;6.80;99.90;;;;;;5090676;28;20506;-66
2021/12/19 04:15:54;;;;;;;5.53;1.98;;;6.80;99.90;;;;;;5091757;28;20040;-67
2021/12/19 04:18:20;;;;;;;7.57;2.45;;;6.80;99.90;;;;;;5089810;28;20070;-66
2021/12/19 04:20:46;;;;;;;9.68;1.52;;;6.90;99.90;;;;;;5091692;28;20076;-66
2021/12/19 04:23:12;;;;;;;6.38;2.03;;;6.90;99.90;;;;;;5092010;28;20047;-66
2021/12/19 04:25:37;;;;;;;5.38;2.35;;;6.90;99.90;;;;;;5089457;28;20064;-66
2021/12/19 04:28:03;;;;;;;6.47;2.25;;;7.00;99.90;;;;;;5091796;28;20042;-66
2021/12/19 04:30:29;;;;;;;9.52;2.60;;;6.90;99.90;;;;;;5090060;28;20199;-66
2021/12/19 04:33:09;;;;;;;8.95;2.47;;;6.90;99.90;;;;;;5089900;28;20087;-66
2021/12/19 04:35:39;;;;;;;7.80;2.33;;;7.00;99.90;;;;;;5090479;28;20050;-66
2021/12/19 04:54:32;;;;;;;9.52;2.78;;;7.00;99.90;;;;;;5109627;28;20056;-66
2021/12/19 05:05:19;;;;;;;8.68;3.95;;;7.00;99.90;;;;;;5110225;28;20153;-66
2021/12/19 05:15:52;;;;;;;13.82;5.60;;;7.00;99.90;;;;;;5108492;28;20051;-67
2021/12/19 05:18:20;;;;;;;15.77;6.13;;;7.10;99.90;;;;;;5110213;28;20072;-66
2021/12/19 05:21:06;;;;;;;11.35;5.97;;;7.00;99.90;;;;;;5111330;28;20080;-66
2021/12/19 05:25:58;;;;;;;15.68;7.10;;;7.00;99.90;;;;;;5104558;28;20055;-66
2021/12/19 05:28:25;;;;;;;16.55;5.95;;;7.00;99.90;;;;;;5088898;28;20048;-66
2021/12/19 05:30:51;;;;;;;12.63;6.10;;;7.10;99.90;;;;;;5096316;28;20101;-66
2021/12/19 05:33:17;;;;;;;9.48;4.78;;;7.10;99.90;;;;;;5111449;28;20519;-66
2021/12/19 05:46:41;;;;;;;7.07;3.55;;;7.10;99.90;;;;;;5109457;28;20044;-66
2021/12/19 05:49:08;;;;;;;18.00;4.30;;;7.10;99.90;;;;;;5093993;28;20711;-66
2021/12/19 05:51:38;;;;;;;15.00;3.80;;;7.10;99.90;;;;;;5088556;28;20036;-66
2021/12/19 05:54:05;;;;;;;11.38;3.97;;;7.10;99.90;;;;;;5090935;28;20051;-66
2021/12/19 05:56:31;;;;;;;21.67;4.63;;;7.10;99.90;;;;;;5088593;28;20071;-66
2021/12/19 05:58:57;;;;;;;8.25;3.10;;;7.10;99.90;;;;;;5098201;28;20052;-66
2021/12/19 06:01:23;;;;;;;15.02;4.35;;;7.10;99.90;;;;;;5095567;28;20055;-66
2021/12/19 06:03:49;;;;;;;11.35;3.28;;;7.10;99.90;;;;;;5103663;28;20048;-66
2021/12/19 06:06:14;;;;;;;7.85;3.28;;;7.10;99.90;;;;;;5109836;28;20051;-66
2021/12/19 06:08:40;;;;;;;7.55;3.70;;;7.00;99.90;;;;;;5096200;28;20509;-66
2021/12/19 06:11:05;;;;;;;8.90;3.67;;;7.00;99.90;;;;;;5090066;28;20390;-66
2021/12/19 06:13:31;;;;;;;12.52;4.13;;;7.10;99.90;;;;;;5089147;28;20056;-66
2021/12/19 06:15:57;;;;;;;11.82;4.65;;;7.00;99.90;;;;;;5089357;28;20509;-66
2021/12/19 06:18:24;;;;;;;13.57;4.25;;;7.10;99.90;;;;;;5088816;28;20512;-66
2021/12/19 06:20:50;;;;;;;370.38;37.15;;;7.10;99.90;;;;;;5090152;28;20040;-66
2021/12/19 06:23:16;;;;;;;11.57;3.70;;;7.10;99.90;;;;;;5089122;28;20044;-66
2021/12/19 06:25:45;;;;;;;20.35;4.53;;;7.10;99.90;;;;;;5088032;28;20044;-66
2021/12/19 06:28:19;;;;;;;9.73;3.30;;;7.10;99.90;;;;;;5089606;28;20127;-66
2021/12/19 06:30:45;;;;;;;9.95;3.67;;;7.10;99.90;;;;;;5092479;28;20051;-66
2021/12/19 06:33:12;;;;;;;11.95;3.88;;;7.10;99.90;;;;;;5093219;28;20390;-66
2021/12/19 06:35:37;;;;;;;105.97;9.57;;;7.10;99.90;;;;;;5106112;28;20079;-66
2021/12/19 06:38:03;;;;;;;9.00;2.97;;;7.10;99.90;;;;;;5097696;28;20510;-66
2021/12/19 06:40:29;;;;;;;3.58;1.77;;;7.10;99.90;;;;;;5100555;28;20076;-66
2021/12/19 06:42:55;;;;;;;8.20;2.28;;;8.10;99.90;;;;;;5092530;28;20046;-66
2021/12/19 06:45:21;;;;;;;6.07;2.45;;;7.00;99.90;;;;;;5092724;28;20043;-66
2021/12/19 06:47:47;;;;;;;11.98;2.05;;;7.00;99.90;;;;;;5101724;28;20089;-66
2021/12/19 06:50:15;;;;;;;7.65;2.78;;;7.10;99.90;;;;;;5112716;28;20055;-66
2021/12/19 06:52:42;;;;;;;37.15;4.38;;;7.00;99.90;;;;;;5091823;28;20108;-66
2021/12/19 06:55:09;;;;;;;40.88;5.35;;;7.00;99.90;;;;;;5095847;28;20036;-66
2021/12/19 06:57:35;;;;;;;7.25;2.25;;;7.00;99.90;;;;;;5108187;28;20042;-66
2021/12/19 07:00:02;;;;;;;9.55;2.60;;;7.10;99.90;;;;;;5098269;28;20051;-66
2021/12/19 07:02:27;;;;;;;17.58;3.65;;;7.00;99.90;;;;;;5091223;28;20054;-66
2021/12/19 07:04:53;;;;;;;14.98;2.75;;;7.00;99.90;;;;;;5101360;28;21391;-66
2021/12/19 07:07:20;;;;;;;8.15;2.58;;;7.10;99.90;;;;;;5092754;28;20036;-66
2021/12/19 07:09:45;;;;;;;4.32;2.17;;;7.00;99.90;;;;;;5090846;28;20105;-66
2021/12/19 07:12:11;;;;;;;8.60;2.15;;;7.00;99.90;;;;;;5073365;28;20049;-66
2021/12/19 07:14:36;;;;;;;8.60;2.25;;;7.00;99.90;;;;;;5101075;28;20083;-66
2021/12/19 07:17:02;;;;;;;5.95;2.50;;;7.10;99.90;;;;;;5092880;28;20547;-66
2021/12/19 07:19:28;;;;;;;9.93;2.80;;;7.00;99.90;;;;;;5111308;28;20066;-66
2021/12/19 07:21:53;;;;;;;5.78;2.05;;;7.00;99.90;;;;;;5111577;28;20093;-66
2021/12/19 07:24:19;;;;;;;10.95;3.13;;;7.00;99.90;;;;;;5113517;28;20130;-66
2021/12/19 07:26:44;;;;;;;8.88;2.38;;;7.00;99.90;;;;;;5111707;28;20394;-66
2021/12/19 07:29:10;;;;;;;14.55;2.88;;;7.00;99.90;;;;;;5112542;28;20401;-66
2021/12/19 07:31:38;;;;;;;7.63;2.45;;;7.00;99.90;;;;;;5112960;28;20051;-66
2021/12/19 07:34:05;;;;;;;15.07;3.38;;;7.10;99.90;;;;;;5109356;28;20043;-66
2021/12/19 07:36:38;;;;;;;11.75;2.95;;;7.00;99.90;;;;;;5102501;28;20047;-66
2021/12/19 07:39:13;;;;;;;4.38;2.03;;;7.00;99.90;;;;;;5105400;28;20059;-66
2021/12/19 07:41:38;;;;;;;15.45;3.42;;;7.10;99.90;;;;;;5091334;28;20052;-66
2021/12/19 07:44:04;;;;;;;9.20;2.33;;;7.10;99.90;;;;;;5091776;28;20050;-66
2021/12/19 07:46:30;;;;;;;12.30;3.10;;;7.10;99.90;;;;;;5094874;28;20044;-66
2021/12/19 07:48:55;;;;;;;11.45;2.25;;;7.00;99.90;;;;;;5096141;28;20108;-66
2021/12/19 07:51:21;;;;;;;10.80;2.60;;;7.10;99.90;;;;;;5092533;28;20040;-65
2021/12/19 07:53:46;;;;;;;10.10;2.95;;;7.10;99.90;;;;;;5111365;28;20117;-66
2021/12/19 07:56:12;;;;;;;7.88;3.05;;;7.10;99.90;;;;;;5112096;28;20048;-66
2021/12/19 07:58:38;;;;;;;14.15;2.83;;;7.10;99.90;;;;;;5112334;28;20138;-66
2021/12/19 08:01:03;;;;;;;11.30;2.40;;;7.10;99.90;;;;;;5111371;28;20083;-66
2021/12/19 08:03:29;;;;;;;21.27;2.47;;;7.40;99.90;;;;;;5110577;28;20043;-66
2021/12/19 08:05:55;;;;;;;6.80;2.45;;;7.10;99.90;;;;;;5112635;27;20040;-66
2021/12/19 08:08:26;;;;;;;13.00;2.88;;;7.20;99.90;;;;;;5112407;28;20040;-66
2021/12/19 08:13:38;;;;;;;8.93;2.58;;;7.20;99.90;;;;;;5110833;28;20052;-66
2021/12/19 08:16:04;;;;;;;10.18;1.95;;;7.20;99.90;;;;;;5112142;28;20490;-66
2021/12/19 08:18:29;;;;;;;14.70;2.78;;;7.20;99.90;;;;;;5109910;28;20055;-66
2021/12/19 08:20:55;;;;;;;10.57;2.50;;;7.20;99.90;;;;;;5112387;28;20058;-66
2021/12/19 08:23:21;;;;;;;14.18;3.13;;;7.20;99.90;;;;;;5085914;28;20049;-66
2021/12/19 08:25:46;;;;;;;12.15;2.67;;;7.20;99.90;;;;;;5099687;28;20047;-66
2021/12/19 08:28:12;;;;;;;9.43;2.15;;;7.20;99.90;;;;;;5100752;28;20050;-66
2021/12/19 08:30:37;;;;;;;8.07;3.13;;;7.20;99.90;;;;;;5110535;28;20056;-66
2021/12/19 08:33:03;;;;;;;12.52;2.13;;;7.20;99.90;;;;;;5110235;28;20047;-66
2021/12/19 08:35:29;;;;;;;13.70;2.17;;;7.20;99.90;;;;;;5110626;28;20577;-66
2021/12/19 08:37:54;;;;;;;5.05;2.22;;;7.20;99.90;;;;;;5110634;28;20526;-66
2021/12/19 08:40:22;;;;;;;7.57;2.13;;;7.20;99.90;;;;;;5111004;28;20135;-66
2021/12/19 08:42:48;;;;;;;17.35;2.67;;;7.20;99.90;;;;;;5110233;28;20051;-66
2021/12/19 08:45:15;;;;;;;11.77;2.22;;;7.20;99.90;;;;;;5108047;28;20473;-66
2021/12/19 08:47:41;;;;;;;8.13;2.55;;;7.30;99.90;;;;;;5099138;28;20051;-66
2021/12/19 08:50:08;;;;;;;12.23;2.15;;;7.20;99.90;;;;;;5110657;28;20151;-66
2021/12/19 08:52:34;;;;;;;19.42;3.03;;;7.20;99.90;;;;;;5090692;28;20036;-66
2021/12/19 08:55:00;;;;;;;12.50;2.25;;;7.20;99.90;;;;;;5091272;28;20048;-66
2021/12/19 08:57:26;;;;;;;5.28;2.00;;;7.30;99.90;;;;;;5109588;28;20067;-66
2021/12/19 08:59:52;;;;;;;11.00;2.45;;;7.30;99.90;;;;;;5084553;28;20040;-66
2021/12/19 09:02:17;;;;;;;6.60;1.90;;;7.20;99.90;;;;;;5094050;28;20059;-66
2021/12/19 09:04:43;;;;;;;18.77;2.80;;;7.30;99.90;;;;;;5092791;28;20113;-70
2021/12/19 09:07:08;;;;;;;6.55;2.22;;;7.20;99.90;;;;;;5106407;28;20044;-74
2021/12/19 09:09:34;;;;;;;5.45;2.15;;;7.30;99.90;;;;;;5110345;28;20079;-69
2021/12/19 09:12:00;;;;;;;7.50;2.20;;;7.40;99.90;;;;;;5104296;28;20500;-72
2021/12/19 09:14:25;;;;;;;7.78;2.05;;;7.40;99.90;;;;;;5089793;28;20055;-68
2021/12/19 09:16:51;;;;;;;5.25;1.90;;;7.40;99.90;;;;;;5090640;28;20131;-67
2021/12/19 09:19:17;;;;;;;9.38;2.20;;;7.30;99.90;;;;;;5090973;28;20474;-67
2021/12/19 09:21:43;;;;;;;10.80;2.78;;;7.30;99.90;;;;;;5093981;28;20051;-68
2021/12/19 09:24:08;;;;;;;12.52;3.30;;;7.40;99.90;;;;;;5098706;28;20506;-68
2021/12/19 09:26:34;;;;;;;9.07;2.38;;;7.50;99.90;;;;;;5107240;28;20507;-67
2021/12/19 09:29:00;;;;;;;9.02;2.22;;;7.90;99.90;;;;;;5108324;28;20054;-67
2021/12/19 09:31:25;;;;;;;8.60;1.67;;;7.40;99.90;;;;;;5079272;28;20843;-68
2021/12/19 09:33:51;;;;;;;9.60;2.35;;;7.50;99.90;;;;;;5073232;28;20487;-68
2021/12/19 09:36:16;;;;;;;9.05;2.28;;;7.50;99.90;;;;;;5087269;28;20055;-68
2021/12/19 09:38:43;;;;;;;7.38;2.03;;;7.50;99.90;;;;;;5088556;28;20084;-68
2021/12/19 09:41:15;;;;;;;10.98;2.67;;;7.50;99.90;;;;;;5089245;28;20113;-68
2021/12/19 09:43:44;;;;;;;7.82;2.20;;;7.50;99.90;;;;;;5088116;28;20051;-68
2021/12/19 09:46:21;;;;;;;12.75;2.90;;;7.60;99.90;;;;;;5080383;28;20401;-67
2021/12/19 09:48:49;;;;;;;5.75;2.80;;;7.60;99.90;;;;;;5068230;28;20445;-67
2021/12/19 09:51:16;;;;;;;9.40;2.88;;;7.50;99.90;;;;;;5068686;28;20044;-67
2021/12/19 09:53:43;;;;;;;7.55;1.77;;;7.60;99.90;;;;;;5072361;28;20056;-67
2021/12/19 09:56:10;;;;;;;10.77;2.50;;;7.60;99.90;;;;;;5084522;28;20055;-67
2021/12/19 09:58:37;;;;;;;11.85;2.97;;;7.50;99.90;;;;;;5068767;28;20453;-67
2021/12/19 10:01:11;;;;;;;10.02;2.80;;;7.60;99.90;;;;;;5085756;28;20044;-67
2021/12/19 10:03:37;;;;;;;6.15;2.33;;;7.60;99.90;;;;;;5083167;28;20084;-67
2021/12/19 10:06:15;;;;;;;8.07;2.47;;;7.50;99.90;;;;;;5084680;28;20039;-67
2021/12/19 10:08:40;;;;;;;12.25;3.08;;;7.50;99.90;;;;;;5073178;28;20041;-67
2021/12/19 10:11:29;;;;;;;8.68;2.45;;;7.50;99.90;;;;;;5078862;28;20044;-67
2021/12/19 10:13:55;;;;;;;12.82;3.78;;;7.60;99.90;;;;;;5084261;28;20044;-67
2021/12/19 10:16:27;;;;;;;12.18;2.78;;;7.60;99.90;;;;;;5088896;28;20169;-69
2021/12/19 10:19:00;;;;;;;14.48;2.72;;;7.60;99.90;;;;;;5087250;28;20048;-67
2021/12/19 10:21:30;;;;;;;11.75;2.95;;;7.60;99.90;;;;;;5090617;28;20123;-67
2021/12/19 10:24:00;;;;;;;16.05;2.20;;;7.60;99.90;;;;;;5084458;28;20047;-67
2021/12/19 10:26:38;;;;;;;14.00;3.00;;;7.60;99.90;;;;;;5075309;28;20606;-67
2021/12/19 10:29:04;;;;;;;11.82;2.50;;;7.60;99.90;;;;;;5081066;28;20045;-67
2021/12/19 10:31:29;;;;;;;7.47;2.53;;;7.60;99.90;;;;;;5095211;27;20491;-68
2021/12/19 10:33:55;;;;;;;16.20;2.60;;;7.60;99.90;;;;;;5091305;28;20128;-67
2021/12/19 10:36:21;;;;;;;10.38;2.42;;;7.60;99.90;;;;;;5080567;28;20047;-67
2021/12/19 10:38:49;;;;;;;11.88;2.65;;;7.60;99.90;;;;;;5072009;28;20047;-67
2021/12/19 10:41:20;;;;;;;11.20;2.50;;;7.60;99.90;;;;;;5071337;28;20044;-67
2021/12/19 10:44:02;;;;;;;15.30;3.05;;;7.60;99.90;;;;;;5072838;28;20058;-67
2021/12/19 10:46:32;;;;;;;15.38;3.67;;;7.60;99.90;;;;;;5073783;28;20071;-67
2021/12/19 10:48:58;;;;;;;7.63;1.63;;;7.70;99.90;;;;;;5081500;28;20545;-67
2021/12/19 10:51:25;;;;;;;7.45;2.35;;;7.60;99.90;;;;;;5098186;28;20048;-67
2021/12/19 10:53:55;;;;;;;8.95;2.88;;;7.70;99.90;;;;;;5082745;28;20087;-68
2021/12/19 10:56:33;;;;;;;13.63;2.75;;;7.70;99.90;;;;;;5087147;28;20133;-67
2021/12/19 10:59:04;;;;;;;7.93;1.83;;;7.70;99.90;;;;;;5090247;28;20084;-67
2021/12/19 11:01:32;;;;;;;6.00;1.42;;;7.80;99.90;;;;;;5091330;28;20043;-68
2021/12/19 11:04:03;;;;;;;12.93;2.45;;;7.70;99.90;;;;;;5092544;28;20040;-67
2021/12/19 11:06:44;;;;;;;8.73;2.33;;;7.70;99.90;;;;;;5082901;28;20053;-67
2021/12/19 11:09:21;;;;;;;7.85;1.95;;;7.80;99.90;;;;;;5080324;28;20402;-67
2021/12/19 11:11:53;;;;;;;7.22;2.30;;;7.80;99.90;;;;;;5092543;28;20056;-67
2021/12/19 11:14:20;;;;;;;19.88;2.90;;;7.80;99.90;;;;;;5090855;28;20415;-67
2021/12/19 11:16:47;;;;;;;11.60;2.50;;;7.80;99.90;;;;;;5091539;28;20091;-67
2021/12/19 11:19:13;;;;;;;9.85;2.17;;;7.90;99.90;;;;;;5085841;28;20051;-67
2021/12/19 11:21:39;;;;;;;13.38;2.90;;;7.90;99.90;;;;;;5070758;28;20677;-66
2021/12/19 11:24:15;;;;;;;7.53;2.70;;;7.90;99.90;;;;;;5074746;28;20044;-66
2021/12/19 11:26:43;;;;;;;9.55;2.58;;;7.90;99.90;;;;;;5091742;28;20059;-66
2021/12/19 11:29:10;;;;;;;13.20;3.25;;;7.90;99.90;;;;;;5077631;28;20083;-66
2021/12/19 11:31:38;;;;;;;11.20;2.25;;;7.90;99.90;;;;;;5089186;28;20040;-66
2021/12/19 11:34:11;;;;;;;12.85;2.20;;;7.90;99.90;;;;;;5090204;28;20052;-66
2021/12/19 11:36:41;;;;;;;16.80;4.22;;;8.00;99.90;;;;;;5087829;28;20269;-66
2021/12/19 11:39:08;;;;;;;21.27;4.18;;;8.00;99.90;;;;;;5085013;28;20052;-66
2021/12/19 11:41:35;;;;;;;11.27;2.72;;;8.00;99.90;;;;;;5083218;28;20395;-66
2021/12/19 11:44:04;;;;;;;12.02;3.38;;;8.00;99.90;;;;;;5075884;28;20565;-66
2021/12/19 11:46:53;;;;;;;9.25;2.80;;;8.00;99.90;;;;;;5082421;28;20106;-66
2021/12/19 11:49:26;;;;;;;15.00;3.78;;;8.00;99.90;;;;;;5082761;28;20053;-66
2021/12/19 11:52:25;;;;;;;17.30;3.40;;;8.00;99.90;;;;;;5073418;28;20047;-66
2021/12/19 11:55:13;;;;;;;11.70;3.38;;;8.10;99.90;;;;;;5087304;28;20040;-66
2021/12/19 11:57:38;;;;;;;21.23;3.30;;;8.10;99.90;;;;;;5085943;28;20048;-66
2021/12/19 12:00:28;;;;;;;10.95;3.22;;;8.10;99.90;;;;;;5072087;28;20106;-66
2021/12/19 12:03:13;;;;;;;19.25;4.10;;;8.10;99.90;;;;;;5106090;28;20062;-66
2021/12/19 12:05:41;;;;;;;16.05;3.30;;;8.10;99.90;;;;;;5080452;28;20525;-66
2021/12/19 12:08:10;;;;;;;13.60;2.88;;;8.10;99.90;;;;;;5083737;28;20063;-66
2021/12/19 12:10:51;;;;;;;20.17;3.17;;;8.10;99.90;;;;;;5082053;28;20072;-66
2021/12/19 12:13:38;;;;;;;15.57;2.92;;;8.20;99.90;;;;;;5083615;28;20186;-66
2021/12/19 12:16:21;;;;;;;13.02;2.95;;;8.10;99.90;;;;;;5071396;28;20139;-66
2021/12/19 12:18:55;;;;;;;12.27;2.40;;;8.10;99.90;;;;;;5076915;28;20052;-66
2021/12/19 12:21:24;;;;;;;17.88;3.10;;;8.20;99.90;;;;;;5090858;28;20050;-66
2021/12/19 12:24:17;;;;;;;14.70;2.78;;;8.20;99.90;;;;;;5091009;28;20058;-66
2021/12/19 12:27:02;;;;;;;14.15;3.50;;;8.20;99.90;;;;;;5090374;28;20150;-66
2021/12/19 12:29:27;;;;;;;14.77;2.80;;;8.20;99.90;;;;;;5090432;28;20470;-66
2021/12/19 12:31:53;;;;;;;6.50;2.38;;;8.20;99.90;;;;;;5089612;28;20084;-66
2021/12/19 12:34:21;;;;;;;13.18;2.95;;;8.20;99.90;;;;;;5091279;28;20056;-66
2021/12/19 12:36:47;;;;;;;13.43;3.15;;;8.20;99.90;;;;;;5090426;28;20051;-66
2021/12/19 12:39:21;;;;;;;14.40;2.58;;;8.20;99.90;;;;;;5090822;28;20058;-67
2021/12/19 12:44:24;;;;;;;14.75;3.53;;;8.20;99.90;;;;;;5090741;28;20088;-67
2021/12/19 12:46:50;;;;;;;7.03;2.40;;;8.20;99.90;;;;;;5093758;28;20128;-67
2021/12/19 12:49:21;;;;;;;19.23;3.33;;;8.20;99.90;;;;;;5090796;28;20383;-67
2021/12/19 12:51:49;;;;;;;6.80;2.22;;;8.20;99.90;;;;;;5090975;28;20044;-67
2021/12/19 12:54:20;;;;;;;18.70;3.03;;;8.20;99.90;;;;;;5090857;28;20058;-67
2021/12/19 12:56:52;;;;;;;12.27;2.67;;;8.30;99.90;;;;;;5090351;28;20040;-67
2021/12/19 12:59:22;;;;;;;12.50;3.10;;;8.30;99.90;;;;;;5089945;28;20128;-67
2021/12/19 13:01:52;;;;;;;11.75;2.17;;;8.30;99.90;;;;;;5091392;28;20050;-67
2021/12/19 13:04:22;;;;;;;16.77;3.00;;;8.30;99.90;;;;;;5090134;28;20566;-67
2021/12/19 13:06:56;;;;;;;12.60;3.33;;;8.20;99.90;;;;;;5089723;28;20044;-66
2021/12/19 13:09:28;;;;;;;13.73;3.17;;;8.20;99.90;;;;;;5090149;28;20091;-66
2021/12/19 13:12:05;;;;;;;13.90;2.83;;;8.20;99.90;;;;;;5086750;28;20082;-66
2021/12/19 13:14:34;;;;;;;11.55;3.05;;;8.20;99.90;;;;;;5081884;28;20048;-66
2021/12/19 13:17:04;;;;;;;13.25;2.85;;;8.20;99.90;;;;;;5096844;28;20056;-66
2021/12/19 13:19:45;;;;;;;21.75;4.22;;;8.20;99.90;;;;;;5090358;28;20427;-66
2021/12/19 13:22:19;;;;;;;8.90;2.30;;;8.20;99.90;;;;;;5088848;28;20051;-66
2021/12/19 13:24:46;;;;;;;14.77;3.35;;;8.20;99.90;;;;;;5070427;28;20405;-66
2021/12/19 13:27:30;;;;;;;6.82;2.35;;;8.20;99.90;;;;;;5077287;28;20050;-66
2021/12/19 13:30:16;;;;;;;15.43;2.67;;;8.20;99.90;;;;;;5110822;28;20390;-66
2021/12/19 13:32:46;;;;;;;14.60;2.53;;;8.20;99.90;;;;;;5110461;28;20043;-66
2021/12/19 13:35:27;;;;;;;8.48;1.95;;;8.20;99.90;;;;;;5110219;28;20048;-66
2021/12/19 13:38:04;;;;;;;16.13;3.33;;;8.20;99.90;;;;;;5113736;28;20054;-66
2021/12/19 13:40:36;;;;;;;6.78;2.90;;;8.20;99.90;;;;;;5101777;28;20093;-67
2021/12/19 13:43:08;;;;;;;10.60;3.10;;;8.20;99.90;;;;;;5089254;28;20041;-66
2021/12/19 13:45:38;;;;;;;10.88;2.47;;;8.20;99.90;;;;;;5081879;28;20059;-66
2021/12/19 13:48:40;;;;;;;22.23;4.07;;;8.20;99.90;;;;;;5085552;28;20109;-66
2021/12/19 13:51:15;;;;;;;12.63;3.67;;;8.20;99.90;;;;;;5079671;28;20056;-66
2021/12/19 13:53:47;;;;;;;18.80;2.55;;;8.20;99.90;;;;;;5093037;28;20297;-66
2021/12/19 13:56:34;;;;;;;10.00;2.08;;;8.20;99.90;;;;;;5079104;28;20513;-66
2021/12/19 13:59:16;;;;;;;5.93;1.63;;;8.20;99.90;;;;;;5081736;28;20052;-66
2021/12/19 14:01:41;;;;;;;7.18;1.55;;;8.10;99.90;;;;;;5073408;28;20049;-66
2021/12/19 14:04:19;;;;;;;8.25;1.58;;;8.10;99.90;;;;;;5073527;28;20040;-66
2021/12/19 14:06:46;;;;;;;6.75;1.85;;;8.10;99.90;;;;;;5073817;28;20441;-66
2021/12/19 14:09:18;;;;;;;4.43;1.17;;;8.10;99.90;;;;;;5074262;28;20051;-66
2021/12/19 14:11:48;;;;;;;10.77;1.80;;;8.10;99.90;;;;;;5073633;28;20052;-66
2021/12/19 14:14:31;;;;;;;5.00;1.08;;;8.10;99.90;;;;;;5073651;28;20102;-66
2021/12/19 14:17:11;;;;;;;12.68;1.17;;;8.00;99.90;;;;;;5072495;28;20052;-66
2021/12/19 14:19:37;;;;;;;14.15;2.08;;;8.00;99.90;;;;;;5072702;28;20048;-66